createdAt,value
2023-03-01T00:01:31.655Z,2.87
2023-03-01T00:04:00.134Z,2.90
2023-03-01T00:06:30.222Z,2.60
2023-03-01T00:08:58.468Z,2.80
2023-03-01T00:11:27.683Z,2.70
2023-03-01T00:13:56.853Z,2.77
2023-03-01T00:16:25.593Z,2.90
2023-03-01T00:18:55.590Z,3.00
2023-03-01T00:21:23.879Z,2.60
2023-03-01T00:23:51.969Z,2.67
2023-03-01T00:26:21.076Z,2.70
2023-03-01T00:28:49.168Z,2.60
2023-03-01T00:31:18.401Z,2.40
2023-03-01T00:33:46.709Z,2.63
2023-03-01T00:36:16.900Z,2.40
2023-03-01T00:38:45.332Z,2.23
2023-03-01T00:41:14.002Z,2.70
2023-03-01T00:43:42.105Z,2.40
2023-03-01T00:46:11.687Z,2.40
2023-03-01T00:48:39.549Z,2.60
2023-03-01T00:51:08.712Z,2.40
2023-03-01T00:53:38.767Z,2.50
2023-03-01T00:56:10.569Z,2.37
2023-03-01T00:58:39.083Z,2.30
2023-03-01T01:01:18.434Z,2.53
2023-03-01T01:03:47.259Z,2.50
2023-03-01T01:06:18.520Z,2.40
2023-03-01T01:08:47.832Z,2.40
2023-03-01T01:11:15.765Z,2.50
2023-03-01T01:13:43.938Z,2.40
2023-03-01T01:16:11.730Z,2.50
2023-03-01T01:18:39.904Z,2.60
2023-03-01T01:21:09.318Z,2.40
2023-03-01T01:23:37.913Z,2.40
2023-03-01T01:26:08.530Z,2.40
2023-03-01T01:28:36.670Z,2.50
2023-03-01T01:31:05.274Z,2.60
2023-03-01T01:33:34.063Z,2.53
2023-03-01T01:36:02.037Z,2.33
2023-03-01T01:38:30.004Z,2.60
2023-03-01T01:40:57.751Z,2.50
2023-03-01T01:43:27.876Z,2.57
2023-03-01T01:45:57.287Z,2.63
2023-03-01T01:48:41.622Z,2.80
2023-03-01T01:51:11.094Z,2.70
2023-03-01T01:53:39.194Z,2.57
2023-03-01T01:56:10.616Z,2.47
2023-03-01T01:58:40.556Z,2.70
2023-03-01T02:01:08.540Z,2.47
2023-03-01T02:03:38.643Z,2.60
2023-03-01T02:06:08.882Z,2.37
2023-03-01T02:08:39.224Z,2.60
2023-03-01T02:11:07.811Z,2.50
2023-03-01T02:13:37.425Z,2.43
2023-03-01T02:16:10.430Z,2.30
2023-03-01T02:18:39.377Z,2.40
2023-03-01T02:21:11.098Z,2.60
2023-03-01T02:23:38.860Z,2.50
2023-03-01T02:26:12.412Z,2.53
2023-03-01T02:28:42.515Z,2.37
2023-03-01T02:31:28.875Z,2.40
2023-03-01T02:33:57.120Z,2.40
2023-03-01T02:36:26.874Z,2.50
2023-03-01T02:38:55.574Z,2.50
2023-03-01T02:41:24.116Z,2.60
2023-03-01T02:43:53.230Z,2.60
2023-03-01T02:46:21.818Z,2.47
2023-03-01T02:48:50.406Z,2.57
2023-03-01T02:51:24.696Z,2.60
2023-03-01T02:53:57.285Z,2.50
2023-03-01T02:56:24.993Z,2.40
2023-03-01T02:58:54.330Z,2.30
2023-03-01T03:01:22.343Z,2.27
2023-03-01T03:03:50.148Z,2.00
2023-03-01T03:06:17.883Z,2.10
2023-03-01T03:08:47.587Z,2.00
2023-03-01T03:11:15.320Z,2.07
2023-03-01T03:13:49.218Z,2.00
2023-03-01T03:16:18.542Z,1.80
2023-03-01T03:18:47.101Z,1.90
2023-03-01T03:21:15.166Z,2.00
2023-03-01T03:23:42.886Z,1.80
2023-03-01T03:26:14.431Z,1.93
2023-03-01T03:28:42.199Z,2.00
2023-03-01T03:31:10.308Z,2.30
2023-03-01T03:33:40.543Z,2.07
2023-03-01T03:36:14.055Z,2.03
2023-03-01T03:38:42.081Z,2.00
2023-03-01T03:41:10.405Z,2.07
2023-03-01T03:43:39.651Z,1.80
2023-03-01T03:46:08.746Z,1.80
2023-03-01T03:48:37.489Z,1.80
2023-03-01T03:51:12.198Z,1.80
2023-03-01T03:53:40.597Z,2.00
2023-03-01T03:56:09.740Z,1.70
2023-03-01T03:58:39.079Z,1.90
2023-03-01T04:01:08.087Z,2.10
2023-03-01T04:03:36.672Z,1.80
2023-03-01T04:06:06.391Z,1.80
2023-03-01T04:08:36.610Z,1.67
2023-03-01T04:11:25.764Z,1.80
2023-03-01T04:13:54.291Z,1.80
2023-03-01T04:16:22.197Z,1.80
2023-03-01T04:18:50.032Z,1.70
2023-03-01T04:21:17.846Z,1.67
2023-03-01T04:23:47.462Z,1.60
2023-03-01T04:26:15.193Z,1.60
2023-03-01T04:28:46.349Z,1.70
2023-03-01T04:31:16.619Z,1.57
2023-03-01T04:33:45.829Z,1.77
2023-03-01T04:36:14.933Z,1.70
2023-03-01T04:38:43.486Z,1.80
2023-03-01T04:41:13.215Z,1.80
2023-03-01T04:43:41.817Z,1.30
2023-03-01T04:46:10.666Z,1.47
2023-03-01T04:48:38.822Z,1.50
2023-03-01T04:51:10.265Z,1.60
2023-03-01T04:53:40.204Z,1.60
2023-03-01T04:56:08.947Z,1.63
2023-03-01T04:58:39.012Z,1.67
2023-03-01T05:01:16.560Z,1.70
2023-03-01T05:03:45.374Z,1.50
2023-03-01T05:06:13.843Z,1.60
2023-03-01T05:08:42.597Z,1.50
2023-03-01T05:11:11.542Z,1.50
2023-03-01T05:13:41.783Z,1.60
2023-03-01T05:16:12.692Z,1.80
2023-03-01T05:18:41.866Z,1.73
2023-03-01T05:21:10.480Z,1.73
2023-03-01T05:23:39.013Z,1.50
2023-03-01T05:26:11.389Z,1.60
2023-03-01T05:28:46.236Z,1.60
2023-03-01T05:31:14.313Z,1.70
2023-03-01T05:33:43.312Z,1.70
2023-03-01T05:36:12.163Z,1.60
2023-03-01T05:38:39.909Z,1.67
2023-03-01T05:41:15.667Z,1.60
2023-03-01T05:43:46.021Z,1.50
2023-03-01T05:46:16.449Z,1.40
2023-03-01T05:48:44.798Z,1.60
2023-03-01T05:51:14.275Z,1.47
2023-03-01T05:53:42.855Z,1.60
2023-03-01T05:56:10.826Z,1.50
2023-03-01T05:58:41.977Z,1.60
2023-03-01T06:01:13.511Z,1.70
2023-03-01T06:03:43.028Z,1.60
2023-03-01T06:06:10.727Z,1.60
2023-03-01T06:08:39.256Z,1.40
2023-03-01T06:11:08.212Z,1.60
2023-03-01T06:13:36.456Z,1.57
2023-03-01T06:16:10.767Z,1.57
2023-03-01T06:18:39.115Z,1.67
2023-03-01T06:21:09.015Z,1.60
2023-03-01T06:23:36.742Z,1.60
2023-03-01T06:26:08.071Z,1.50
2023-03-01T06:28:36.400Z,1.70
2023-03-01T06:31:04.566Z,1.70
2023-03-01T06:33:32.408Z,1.83
2023-03-01T06:36:00.206Z,1.60
2023-03-01T06:38:29.362Z,1.70
2023-03-01T06:40:57.680Z,1.70
2023-03-01T06:43:25.925Z,1.70
2023-03-01T06:45:53.699Z,1.90
2023-03-01T06:48:23.877Z,1.80
2023-03-01T06:50:51.841Z,1.77
2023-03-01T06:53:20.022Z,1.97
2023-03-01T06:55:49.452Z,1.80
2023-03-01T06:58:17.227Z,1.93
2023-03-01T07:00:45.348Z,1.90
2023-03-01T07:03:13.742Z,2.03
2023-03-01T07:05:42.081Z,1.80
2023-03-01T07:08:10.271Z,1.87
2023-03-01T07:10:38.488Z,1.90
2023-03-01T07:13:11.218Z,1.90
2023-03-01T07:15:39.376Z,2.00
2023-03-01T07:18:07.672Z,2.10
2023-03-01T07:20:36.605Z,1.73
2023-03-01T07:23:04.580Z,1.90
2023-03-01T07:25:33.151Z,1.90
2023-03-01T07:28:01.143Z,2.00
2023-03-01T07:30:30.288Z,2.13
2023-03-01T07:32:59.007Z,2.10
2023-03-01T07:35:27.465Z,2.20
2023-03-01T07:37:55.271Z,2.43
2023-03-01T07:40:23.065Z,2.30
2023-03-01T07:42:50.815Z,2.00
2023-03-01T07:45:18.651Z,2.17
2023-03-01T07:47:52.173Z,1.90
2023-03-01T07:50:20.071Z,1.90
2023-03-01T07:52:48.304Z,2.40
2023-03-01T07:55:19.277Z,2.10
2023-03-01T07:57:47.007Z,2.20
2023-03-01T08:00:15.482Z,2.30
2023-03-01T08:02:44.275Z,2.17
2023-03-01T08:05:25.291Z,2.03
2023-03-01T08:07:53.032Z,2.33
2023-03-01T08:10:20.756Z,2.10
2023-03-01T08:12:48.506Z,2.20
2023-03-01T08:15:19.146Z,2.40
2023-03-01T08:17:46.876Z,2.50
2023-03-01T08:20:19.752Z,2.37
2023-03-01T08:22:47.782Z,2.00
2023-03-01T08:25:16.064Z,2.40
2023-03-01T08:27:44.728Z,2.40
2023-03-01T08:30:17.733Z,2.30
2023-03-01T08:32:46.297Z,2.30
2023-03-01T08:35:15.053Z,2.30
2023-03-01T08:37:46.139Z,2.00
2023-03-01T08:40:15.951Z,2.30
2023-03-01T08:42:45.180Z,1.90
2023-03-01T08:45:15.327Z,2.00
2023-03-01T08:47:46.754Z,2.33
2023-03-01T08:50:16.683Z,2.00
2023-03-01T08:52:46.146Z,1.80
2023-03-01T08:55:16.073Z,1.90
2023-03-01T08:57:44.934Z,1.90
2023-03-01T09:00:16.035Z,1.73
2023-03-01T09:02:44.889Z,1.97
2023-03-01T09:05:13.875Z,2.37
2023-03-01T09:07:43.829Z,2.20
2023-03-01T09:10:16.258Z,2.40
2023-03-01T09:12:45.801Z,1.80
2023-03-01T09:15:14.768Z,1.97
2023-03-01T09:17:46.042Z,1.90
2023-03-01T09:20:15.163Z,1.90
2023-03-01T09:22:43.666Z,2.00
2023-03-01T09:25:15.807Z,1.90
2023-03-01T09:27:47.672Z,2.10
2023-03-01T09:30:16.819Z,2.13
2023-03-01T09:32:48.742Z,2.10
2023-03-01T09:35:16.853Z,1.97
2023-03-01T09:37:45.746Z,2.17
2023-03-01T09:40:17.448Z,2.10
2023-03-01T09:42:50.939Z,2.10
2023-03-01T09:45:27.513Z,1.83
2023-03-01T09:47:56.243Z,1.80
2023-03-01T09:50:24.165Z,2.00
2023-03-01T09:52:55.456Z,1.90
2023-03-01T09:55:28.392Z,1.80
2023-03-01T09:57:58.416Z,1.80
2023-03-01T10:00:35.598Z,1.90
2023-03-01T10:03:11.426Z,1.93
2023-03-01T10:05:47.326Z,1.90
2023-03-01T10:08:30.568Z,1.90
2023-03-01T10:11:02.018Z,1.80
2023-03-01T10:13:31.497Z,1.87
2023-03-01T10:16:03.833Z,2.00
2023-03-01T10:18:38.214Z,1.83
2023-03-01T10:21:16.876Z,1.90
2023-03-01T10:23:45.597Z,1.80
2023-03-01T10:26:20.619Z,1.70
2023-03-01T10:28:52.558Z,1.80
2023-03-01T10:31:24.196Z,1.80
2023-03-01T10:33:56.028Z,1.90
2023-03-01T10:36:24.149Z,1.90
2023-03-01T10:38:54.949Z,2.03
2023-03-01T10:41:25.568Z,2.30
2023-03-01T10:43:54.857Z,2.40
2023-03-01T10:46:27.219Z,2.00
2023-03-01T10:49:17.372Z,2.30
2023-03-01T10:51:47.908Z,2.17
2023-03-01T10:54:20.533Z,2.40
2023-03-01T10:56:51.875Z,2.30
2023-03-01T10:59:23.921Z,2.60
2023-03-01T11:02:06.998Z,2.57
2023-03-01T11:04:42.044Z,3.00
2023-03-01T11:07:10.870Z,3.37
2023-03-01T11:09:42.446Z,3.60
2023-03-01T11:12:19.234Z,4.33
2023-03-01T11:14:51.254Z,3.70
2023-03-01T11:17:20.565Z,4.20
2023-03-01T11:20:02.896Z,4.30
2023-03-01T11:22:31.119Z,4.67
2023-03-01T11:25:09.440Z,5.47
2023-03-01T11:27:48.270Z,5.90
2023-03-01T11:30:22.235Z,5.93
2023-03-01T11:32:53.627Z,5.30
2023-03-01T11:35:23.253Z,5.60
2023-03-01T11:37:58.594Z,5.70
2023-03-01T11:40:27.368Z,5.30
2023-03-01T11:43:02.183Z,4.30
2023-03-01T11:45:33.183Z,4.60
2023-03-01T11:48:08.992Z,4.07
2023-03-01T11:50:40.414Z,4.20
2023-03-01T11:53:19.424Z,3.77
2023-03-01T11:55:54.657Z,3.77
2023-03-01T11:58:32.148Z,3.80
2023-03-01T12:01:05.906Z,3.80
2023-03-01T12:03:40.737Z,3.70
2023-03-01T12:06:25.111Z,3.60
2023-03-01T12:09:03.893Z,3.77
2023-03-01T12:11:39.566Z,4.23
2023-03-01T12:14:22.496Z,4.17
2023-03-01T12:17:01.130Z,4.43
2023-03-01T12:19:36.819Z,4.50
2023-03-01T12:22:11.741Z,4.63
2023-03-01T12:25:04.992Z,4.70
2023-03-01T12:27:50.112Z,5.17
2023-03-01T12:30:25.753Z,4.93
2023-03-01T12:33:01.988Z,4.97
2023-03-01T12:35:48.343Z,5.03
2023-03-01T12:38:23.359Z,4.90
2023-03-01T12:41:07.754Z,5.27
2023-03-01T12:43:50.127Z,4.63
2023-03-01T12:46:27.853Z,4.50
2023-03-01T12:49:02.015Z,4.47
2023-03-01T12:51:32.413Z,3.80
2023-03-01T12:54:01.856Z,3.97
2023-03-01T12:56:31.208Z,3.40
2023-03-01T12:59:02.519Z,3.90
2023-03-01T13:01:41.562Z,3.33
2023-03-01T13:04:23.536Z,3.10
2023-03-01T13:06:56.859Z,3.00
2023-03-01T13:09:28.934Z,2.90
2023-03-01T13:11:56.701Z,2.70
2023-03-01T13:14:49.167Z,2.73
2023-03-01T13:17:35.457Z,2.70
2023-03-01T13:20:05.176Z,2.70
2023-03-01T13:22:39.691Z,2.30
2023-03-01T13:25:16.339Z,2.60
2023-03-01T13:27:47.599Z,2.53
2023-03-01T13:30:39.102Z,2.50
2023-03-01T13:33:35.209Z,2.33
2023-03-01T13:36:04.694Z,2.30
2023-03-01T13:38:40.086Z,2.07
2023-03-01T13:41:07.992Z,2.40
2023-03-01T13:43:39.673Z,1.90
2023-03-01T13:46:12.230Z,1.90
2023-03-01T13:48:40.459Z,1.80
2023-03-01T13:51:12.144Z,1.90
2023-03-01T13:53:42.507Z,1.80
2023-03-01T13:56:12.395Z,1.90
2023-03-01T13:58:50.880Z,1.80
2023-03-01T14:01:30.226Z,1.77
2023-03-01T14:04:01.915Z,1.90
2023-03-01T14:06:32.634Z,1.50
2023-03-01T14:09:05.146Z,1.80
2023-03-01T14:11:51.865Z,1.90
2023-03-01T14:14:37.097Z,1.90
2023-03-01T14:17:12.139Z,1.90
2023-03-01T14:19:39.869Z,1.80
2023-03-01T14:22:20.985Z,1.80
2023-03-01T14:24:50.222Z,1.70
2023-03-01T14:27:20.451Z,1.77
2023-03-01T14:29:56.473Z,1.80
2023-03-01T14:32:26.096Z,1.70
2023-03-01T14:34:54.033Z,1.80
2023-03-01T14:37:26.928Z,1.90
2023-03-01T14:39:54.894Z,1.80
2023-03-01T14:42:24.335Z,1.80
2023-03-01T14:44:53.411Z,1.50
2023-03-01T14:47:28.681Z,1.70
2023-03-01T14:49:58.802Z,1.60
2023-03-01T14:52:32.591Z,1.60
2023-03-01T14:55:02.884Z,1.70
2023-03-01T14:57:30.590Z,1.70
2023-03-01T15:00:01.510Z,1.57
2023-03-01T15:02:31.032Z,1.70
2023-03-01T15:05:01.732Z,1.83
2023-03-01T15:07:32.548Z,1.80
2023-03-01T15:10:00.469Z,1.60
2023-03-01T15:12:37.105Z,1.70
2023-03-01T15:15:21.093Z,1.60
2023-03-01T15:17:52.915Z,1.80
2023-03-01T15:20:22.670Z,1.63
2023-03-01T15:22:51.854Z,1.70
2023-03-01T15:25:20.757Z,1.70
2023-03-01T15:27:49.484Z,1.60
2023-03-01T15:30:20.772Z,1.60
2023-03-01T15:32:48.599Z,1.70
2023-03-01T15:35:37.767Z,1.60
2023-03-01T15:38:26.148Z,1.60
2023-03-01T15:40:54.223Z,1.50
2023-03-01T15:43:44.675Z,1.50
2023-03-01T15:46:30.992Z,1.43
2023-03-01T15:48:59.602Z,1.50
2023-03-01T15:51:34.741Z,1.70
2023-03-01T15:54:06.230Z,1.60
2023-03-01T15:56:34.311Z,1.67
2023-03-01T15:59:05.529Z,1.70
2023-03-01T16:01:35.367Z,1.50
2023-03-01T16:04:03.203Z,1.40
2023-03-01T16:06:31.279Z,1.40
2023-03-01T16:08:59.178Z,1.50
2023-03-01T16:11:28.946Z,1.60
2023-03-01T16:13:56.750Z,1.70
2023-03-01T16:16:24.710Z,1.80
2023-03-01T16:18:55.368Z,1.60
2023-03-01T16:24:56.890Z,1.60
2023-03-01T16:27:26.614Z,1.40
2023-03-01T16:29:54.368Z,1.70
2023-03-01T16:32:22.226Z,1.67
2023-03-01T16:34:50.462Z,1.90
2023-03-01T16:37:20.271Z,1.80
2023-03-01T16:39:48.149Z,2.00
2023-03-01T16:42:17.469Z,2.00
2023-03-01T16:44:48.902Z,2.03
2023-03-01T16:47:16.617Z,2.10
2023-03-01T16:49:46.846Z,2.60
2023-03-01T16:52:14.629Z,2.80
2023-03-01T16:54:42.406Z,2.57
2023-03-01T16:57:10.174Z,2.40
2023-03-01T16:59:38.502Z,2.60
2023-03-01T17:02:09.248Z,2.47
2023-03-01T17:04:37.008Z,2.67
2023-03-01T17:07:04.939Z,2.90
2023-03-01T17:09:36.899Z,2.80
2023-03-01T17:12:04.829Z,2.73
2023-03-01T17:14:32.544Z,2.70
2023-03-01T17:17:03.639Z,2.70
2023-03-01T17:19:33.008Z,2.53
2023-03-01T17:22:01.279Z,3.03
2023-03-01T17:24:30.108Z,2.90
2023-03-01T17:27:03.325Z,2.97
2023-03-01T17:29:32.918Z,2.90
2023-03-01T17:32:00.830Z,2.70
2023-03-01T17:34:28.619Z,2.70
2023-03-01T17:36:57.778Z,2.70
2023-03-01T17:39:32.256Z,2.60
2023-03-01T17:42:03.529Z,2.70
2023-03-01T17:44:33.419Z,2.73
2023-03-01T17:47:01.197Z,2.63
2023-03-01T17:49:31.410Z,2.70
2023-03-01T17:52:00.975Z,2.80
2023-03-01T17:54:28.675Z,2.70
2023-03-01T17:56:56.565Z,2.70
2023-03-01T17:59:24.717Z,2.70
2023-03-01T18:01:53.142Z,2.70
2023-03-01T18:04:21.369Z,3.00
2023-03-01T18:06:49.088Z,3.00
2023-03-01T18:09:18.305Z,2.90
2023-03-01T18:11:47.828Z,2.80
2023-03-01T18:14:15.679Z,3.00
2023-03-01T18:16:43.448Z,2.57
2023-03-01T18:19:12.645Z,2.90
2023-03-01T18:21:40.491Z,2.70
2023-03-01T18:24:08.326Z,3.00
2023-03-01T18:26:39.185Z,2.90
2023-03-01T18:29:08.153Z,3.07
2023-03-01T18:31:36.075Z,2.77
2023-03-01T18:34:03.966Z,2.80
2023-03-01T18:36:33.933Z,2.60
2023-03-01T18:39:02.934Z,2.40
2023-03-01T18:41:31.198Z,2.70
2023-03-01T18:44:00.696Z,2.90
2023-03-01T18:46:28.907Z,2.67
2023-03-01T18:49:01.176Z,3.00
2023-03-01T18:51:30.446Z,2.70
2023-03-01T18:53:59.734Z,3.00
2023-03-01T18:56:28.870Z,3.20
2023-03-01T18:58:57.097Z,3.30
2023-03-01T19:01:26.854Z,3.20
2023-03-01T19:03:54.995Z,2.80
2023-03-01T19:06:23.521Z,2.70
2023-03-01T19:08:53.404Z,3.10
2023-03-01T19:11:21.974Z,2.67
2023-03-01T19:13:51.921Z,2.97
2023-03-01T19:16:23.751Z,2.73
2023-03-01T19:18:54.641Z,2.70
2023-03-01T19:21:31.053Z,2.90
2023-03-01T19:24:07.474Z,2.60
2023-03-01T19:26:36.022Z,3.00
2023-03-01T19:29:07.639Z,2.90
2023-03-01T19:31:35.410Z,2.90
2023-03-01T19:34:11.604Z,2.60
2023-03-01T19:36:41.816Z,2.73
2023-03-01T19:39:09.895Z,2.90
2023-03-01T19:41:37.592Z,2.80
2023-03-01T19:44:06.130Z,2.70
2023-03-01T19:46:34.516Z,3.30
2023-03-01T19:49:03.598Z,3.10
2023-03-01T19:51:36.215Z,2.90
2023-03-01T19:54:04.288Z,2.80
2023-03-01T19:56:32.232Z,2.90
2023-03-01T19:59:04.575Z,2.80
2023-03-01T20:01:34.631Z,2.50
2023-03-01T20:04:02.744Z,3.00
2023-03-01T20:06:31.224Z,2.77
2023-03-01T20:09:09.063Z,2.90
2023-03-01T20:11:43.395Z,2.90
2023-03-01T20:14:12.518Z,3.20
2023-03-01T20:16:40.794Z,2.90
2023-03-01T20:19:08.691Z,2.80
2023-03-01T20:21:36.441Z,2.90
2023-03-01T20:24:05.888Z,2.70
2023-03-01T20:26:34.140Z,2.90
2023-03-01T20:29:02.113Z,3.03
2023-03-01T20:31:30.162Z,2.90
2023-03-01T20:33:58.517Z,2.97
2023-03-01T20:36:26.753Z,2.63
2023-03-01T20:38:54.549Z,2.83
2023-03-01T20:41:26.042Z,2.60
2023-03-01T20:43:56.994Z,2.60
2023-03-01T20:46:26.760Z,3.17
2023-03-01T20:48:54.855Z,3.00
2023-03-01T20:51:25.690Z,2.60
2023-03-01T20:53:53.536Z,2.70
2023-03-01T20:56:22.569Z,2.73
2023-03-01T20:58:51.807Z,2.87
2023-03-01T21:01:21.300Z,2.70
2023-03-01T21:03:49.114Z,3.00
2023-03-01T21:06:16.988Z,2.93
2023-03-01T21:08:47.533Z,3.20
2023-03-01T21:11:16.638Z,3.10
2023-03-01T21:13:44.899Z,2.93
2023-03-01T21:16:14.742Z,3.00
2023-03-01T21:18:42.723Z,3.00
2023-03-01T21:21:12.197Z,2.97
2023-03-01T21:23:40.528Z,3.20
2023-03-01T21:26:09.278Z,3.20
2023-03-01T21:28:37.604Z,3.23
2023-03-01T21:31:06.347Z,2.80
2023-03-01T21:33:35.562Z,3.00
2023-03-01T21:36:04.576Z,3.00
2023-03-01T21:38:32.836Z,3.07
2023-03-01T21:41:00.513Z,3.43
2023-03-01T21:43:28.303Z,3.23
2023-03-01T21:45:56.033Z,3.33
2023-03-01T21:48:23.948Z,3.90
2023-03-01T21:50:57.200Z,3.73
2023-03-01T21:53:25.071Z,3.67
2023-03-01T21:55:54.797Z,4.10
2023-03-01T21:58:22.500Z,4.20
2023-03-01T22:00:50.249Z,4.53
2023-03-01T22:03:18.110Z,4.20
2023-03-01T22:05:54.926Z,4.03
2023-03-01T22:08:24.139Z,4.37
2023-03-01T22:10:52.226Z,4.67
2023-03-01T22:13:20.544Z,4.50
2023-03-01T22:15:49.942Z,4.67
2023-03-01T22:18:17.939Z,4.53
2023-03-01T22:20:45.673Z,4.63
2023-03-01T22:23:13.370Z,4.80
2023-03-01T22:25:43.500Z,5.30
2023-03-01T22:28:13.062Z,4.67
2023-03-01T22:30:40.791Z,5.00
2023-03-01T22:33:11.201Z,4.80
2023-03-01T22:35:42.374Z,4.80
2023-03-01T22:38:10.319Z,4.97
2023-03-01T22:40:39.112Z,5.13
2023-03-01T22:43:08.965Z,5.10
2023-03-01T22:45:36.658Z,6.00
2023-03-01T22:48:05.325Z,5.57
2023-03-01T22:50:33.029Z,5.43
2023-03-01T22:53:01.335Z,6.23
2023-03-01T22:55:29.637Z,6.13
2023-03-01T22:57:57.378Z,6.00
2023-03-01T23:00:26.698Z,6.20
2023-03-01T23:02:54.650Z,5.77
2023-03-01T23:05:22.480Z,5.70
2023-03-01T23:07:50.211Z,5.73
2023-03-01T23:10:17.942Z,6.83
2023-03-01T23:12:45.669Z,6.80
2023-03-01T23:15:13.580Z,6.50
2023-03-01T23:17:42.745Z,6.50
2023-03-01T23:20:11.420Z,6.33
2023-03-01T23:22:39.321Z,6.13
2023-03-01T23:25:11.240Z,6.47
2023-03-01T23:27:39.262Z,6.27
2023-03-01T23:30:07.927Z,5.37
2023-03-01T23:32:40.439Z,5.70
2023-03-01T23:35:10.751Z,6.33
2023-03-01T23:37:38.569Z,6.40
2023-03-01T23:40:07.150Z,6.23
2023-03-01T23:42:34.912Z,6.27
2023-03-01T23:45:02.675Z,6.27
2023-03-01T23:47:30.463Z,6.10
2023-03-01T23:49:58.411Z,6.43
2023-03-01T23:52:30.460Z,7.03
2023-03-01T23:55:00.114Z,6.73
2023-03-01T23:57:28.754Z,6.70
2023-03-01T23:59:56.607Z,7.07
